Time;durP1;ratioP1;P1;durP2;ratioP2;P2;SDS_P1;SDS_P2;PMS_P1;PMS_P2;Temp;Humidity;BMP_temperature;BMP_pressure;BME280_temperature;BME280_humidity;BME280_pressure;Samples;Min_cycle;Max_cycle;Signal;HPM_P1;HPM_P2
2022/07/21 00:02:39;;;;;;;6.80;4.77;;;;;;;27.46;45.23;98221.53;8446963;28;20238;-73
2022/07/21 00:06:42;;;;;;;7.93;5.20;;;;;;;27.44;45.83;98229.69;8447389;28;20233;-73
2022/07/21 00:10:48;;;;;;;10.43;4.80;;;;;;;27.33;46.21;98229.19;8447419;28;20480;-73
2022/07/21 00:14:51;;;;;;;7.43;4.57;;;;;;;27.04;47.18;98241.97;8447073;28;20432;-73
2022/07/21 00:18:54;;;;;;;5.97;4.40;;;;;;;27.14;45.98;98231.19;8447029;28;20238;-73
2022/07/21 00:22:57;;;;;;;7.17;4.20;;;;;;;27.13;46.14;98221.56;8447287;28;20355;-73
2022/07/21 00:27:02;;;;;;;8.67;4.33;;;;;;;27.15;45.92;98226.69;8447183;28;20226;-73
2022/07/21 00:31:05;;;;;;;6.63;3.77;;;;;;;27.15;45.87;98222.22;8446847;28;20234;-74
2022/07/21 00:35:09;;;;;;;4.73;3.30;;;;;;;26.99;45.58;98220.38;8447057;28;20242;-73
2022/07/21 00:39:12;;;;;;;5.47;3.37;;;;;;;26.85;46.28;98203.28;8446960;28;20230;-73
2022/07/21 00:43:16;;;;;;;4.57;3.50;;;;;;;26.92;45.59;98203.44;8446500;28;20429;-73
2022/07/21 00:47:20;;;;;;;6.63;3.47;;;;;;;26.80;45.67;98196.81;8446675;28;20227;-73
2022/07/21 00:51:23;;;;;;;6.10;3.70;;;;;;;26.96;45.95;98172.03;8451652;28;20392;-73
2022/07/21 00:55:26;;;;;;;6.80;3.40;;;;;;;27.00;46.14;98192.00;8453561;28;20518;-73
2022/07/21 00:59:30;;;;;;;6.07;3.00;;;;;;;26.92;46.60;98159.13;8453379;28;20413;-73
2022/07/21 01:03:33;;;;;;;3.83;3.00;;;;;;;26.80;47.57;98090.53;8453377;28;20234;-73
2022/07/21 01:07:36;;;;;;;9.20;3.60;;;;;;;26.75;50.95;98088.41;8453439;28;20230;-73
2022/07/21 01:11:39;;;;;;;7.10;3.27;;;;;;;26.55;51.94;98069.28;8453159;28;20232;-73
2022/07/21 01:15:43;;;;;;;10.57;3.90;;;;;;;26.46;52.18;98070.28;8452952;28;20239;-73
2022/07/21 01:19:46;;;;;;;6.33;3.43;;;;;;;26.58;52.62;98079.59;8452786;28;20227;-73
2022/07/21 01:23:51;;;;;;;8.20;3.80;;;;;;;26.51;52.13;98100.66;8452498;28;20230;-73
2022/07/21 01:27:53;;;;;;;7.30;3.97;;;;;;;26.41;53.03;98107.97;8452604;28;20566;-73
2022/07/21 01:31:56;;;;;;;7.20;3.90;;;;;;;26.33;53.29;98106.13;8452552;28;20238;-73
2022/07/21 01:35:59;;;;;;;6.60;3.60;;;;;;;26.28;53.21;98103.13;8452124;28;20236;-73
2022/07/21 01:44:24;;;;;;;6.87;3.60;;;;;;;26.18;52.83;98102.47;8452046;28;20424;-73
2022/07/21 01:48:27;;;;;;;6.30;3.90;;;;;;;26.20;53.18;98110.25;8452019;28;20243;-73
2022/07/21 01:52:29;;;;;;;6.13;3.93;;;;;;;26.12;53.83;98109.25;8451831;28;20226;-73
2022/07/21 01:56:34;;;;;;;6.67;4.17;;;;;;;26.19;53.68;98109.44;8451797;28;20230;-73
2022/07/21 02:00:37;;;;;;;7.60;4.37;;;;;;;26.09;54.41;98119.38;8450323;28;20228;-74
2022/07/21 02:04:40;;;;;;;5.30;4.40;;;;;;;26.05;54.37;98118.03;8451527;28;20244;-74
2022/07/21 02:08:44;;;;;;;8.93;4.03;;;;;;;26.04;54.09;98117.19;8451087;28;20248;-73
2022/07/21 02:12:48;;;;;;;5.20;4.07;;;;;;;25.91;54.91;98114.13;8451166;28;20432;-73
2022/07/21 02:16:51;;;;;;;7.23;4.53;;;;;;;25.89;54.72;98114.31;8450729;28;20227;-73
2022/07/21 02:20:54;;;;;;;7.97;4.77;;;;;;;25.71;55.11;98111.78;8450627;28;20293;-73
2022/07/21 02:24:56;;;;;;;5.70;4.27;;;;;;;25.78;54.40;98113.78;8450950;28;20423;-73
2022/07/21 02:29:01;;;;;;;7.67;4.87;;;;;;;25.68;54.80;98117.41;8450775;28;20548;-73
2022/07/21 02:33:03;;;;;;;5.17;4.67;;;;;;;25.59;54.86;98125.47;8450705;28;20270;-73
2022/07/21 02:37:06;;;;;;;9.67;5.10;;;;;;;25.53;55.09;98121.63;8450372;28;20233;-73
2022/07/21 02:41:09;;;;;;;6.67;4.97;;;;;;;25.54;55.53;98134.75;8450158;28;20233;-73
2022/07/21 02:45:13;;;;;;;5.73;4.97;;;;;;;25.54;54.98;98153.28;8450213;28;20439;-73
2022/07/21 02:49:21;;;;;;;7.53;4.57;;;;;;;25.49;54.93;98149.47;8449855;28;20233;-73
2022/07/21 02:53:24;;;;;;;8.10;5.33;;;;;;;25.42;55.16;98153.72;8449942;28;20394;-73
2022/07/21 02:57:27;;;;;;;6.30;5.40;;;;;;;25.27;55.66;98141.06;8449486;28;20235;-73
2022/07/21 03:01:31;;;;;;;6.53;5.20;;;;;;;25.26;55.48;98159.78;8449557;28;20585;-73
2022/07/21 03:05:37;;;;;;;8.83;5.50;;;;;;;25.36;55.45;98179.91;8449591;28;20233;-73
2022/07/21 03:09:40;;;;;;;6.20;5.57;;;;;;;25.23;55.51;98170.72;8449457;28;20537;-74
2022/07/21 03:13:43;;;;;;;8.40;6.00;;;;;;;25.20;56.18;98170.97;8449020;28;20227;-74
2022/07/21 03:17:47;;;;;;;6.50;5.40;;;;;;;25.23;56.11;98191.91;8449113;28;20290;-73
2022/07/21 03:21:50;;;;;;;8.63;5.73;;;;;;;25.21;55.64;98218.53;8448184;28;20237;-73
2022/07/21 03:25:52;;;;;;;8.50;5.60;;;;;;;25.24;55.35;98228.00;8448762;28;20233;-73
2022/07/21 03:29:55;;;;;;;6.83;6.03;;;;;;;25.27;55.23;98230.34;8448674;28;20242;-73
2022/07/21 03:34:00;;;;;;;6.77;6.07;;;;;;;25.22;55.68;98233.41;8448157;28;20240;-73
2022/07/21 03:38:02;;;;;;;9.07;6.53;;;;;;;25.22;55.64;98246.66;8448255;28;20226;-73
2022/07/21 03:42:06;;;;;;;9.70;7.03;;;;;;;25.19;55.98;98265.56;8448400;28;20417;-74
2022/07/21 03:46:09;;;;;;;8.80;7.27;;;;;;;25.09;56.26;98265.63;8448231;28;20239;-73
2022/07/21 03:50:14;;;;;;;10.27;7.30;;;;;;;25.14;56.20;98271.28;8447701;28;20242;-74
2022/07/21 03:54:18;;;;;;;9.07;7.27;;;;;;;25.16;56.00;98250.78;8448009;28;20249;-73
2022/07/21 03:58:21;;;;;;;13.13;7.87;;;;;;;25.01;56.24;98248.84;8447895;28;20250;-73
2022/07/21 04:02:24;;;;;;;9.80;8.20;;;;;;;24.93;56.44;98239.81;8447689;28;20248;-74
2022/07/21 04:06:28;;;;;;;12.27;8.33;;;;;;;24.91;56.82;98231.19;8447764;28;20416;-74
2022/07/21 04:10:33;;;;;;;9.20;8.30;;;;;;;24.98;56.48;98244.69;8447456;28;20236;-74
2022/07/21 04:14:36;;;;;;;10.60;8.37;;;;;;;24.89;56.65;98246.41;8447450;28;20526;-73
2022/07/21 04:18:39;;;;;;;11.20;8.23;;;;;;;24.98;56.09;98234.09;8447351;28;20292;-74
2022/07/21 04:22:44;;;;;;;12.73;8.87;;;;;;;24.95;56.22;98243.16;8447223;28;20223;-74
2022/07/21 04:26:47;;;;;;;9.93;8.40;;;;;;;25.10;55.84;98247.91;8463053;28;20294;-73
2022/07/21 04:30:50;;;;;;;10.63;8.10;;;;;;;25.05;56.01;98261.59;8446992;28;20247;-74
2022/07/21 04:34:53;;;;;;;11.90;9.10;;;;;;;25.06;55.99;98284.47;8447738;28;20264;-74
2022/07/21 04:38:57;;;;;;;12.50;8.70;;;;;;;25.08;56.38;98294.94;8446886;28;20231;-73
2022/07/21 04:43:00;;;;;;;13.40;9.17;;;;;;;24.97;57.64;98293.34;8446958;28;20237;-71
2022/07/21 04:47:02;;;;;;;12.47;9.67;;;;;;;24.79;58.13;98293.34;8447043;28;20231;-76
2022/07/21 04:51:05;;;;;;;16.13;9.70;;;;;;;25.01;58.00;98294.69;8446737;28;20249;-74
2022/07/21 04:55:10;;;;;;;12.43;10.67;;;;;;;24.91;58.11;98293.94;8446713;28;20372;-72
2022/07/21 04:59:13;;;;;;;12.10;10.40;;;;;;;24.87;58.52;98311.13;8444485;28;20262;-75
2022/07/21 05:03:16;;;;;;;13.90;10.00;;;;;;;24.94;58.28;98299.78;8426019;28;20230;-73
2022/07/21 05:07:19;;;;;;;13.40;11.43;;;;;;;25.03;58.13;98323.69;8412828;28;20231;-73
2022/07/21 05:11:23;;;;;;;16.93;11.80;;;;;;;24.92;58.37;98328.25;8412584;28;20518;-75
2022/07/21 05:15:26;;;;;;;16.07;12.20;;;;;;;24.93;58.96;98327.25;8412797;28;20218;-74
2022/07/21 05:19:29;;;;;;;15.73;12.73;;;;;;;24.90;58.69;98324.06;8412611;28;20243;-74
2022/07/21 05:23:32;;;;;;;15.40;11.83;;;;;;;25.00;58.22;98319.53;8412418;28;20230;-74
2022/07/21 05:27:36;;;;;;;33.60;13.17;;;;;;;24.97;58.77;98317.19;8423742;28;20234;-74
2022/07/21 05:31:39;;;;;;;12.37;11.17;;;;;;;24.90;59.31;98316.97;8445797;28;20235;-74
2022/07/21 05:35:42;;;;;;;14.43;12.40;;;;;;;24.86;58.88;98320.03;8448066;28;20287;-74
2022/07/21 05:39:45;;;;;;;16.57;12.33;;;;;;;24.90;58.64;98321.41;8451901;28;20230;-75
2022/07/21 05:43:49;;;;;;;15.07;12.70;;;;;;;24.84;59.23;98340.56;8451637;28;20226;-74
2022/07/21 05:47:52;;;;;;;14.30;12.73;;;;;;;24.93;58.36;98335.19;8451864;28;20417;-74
2022/07/21 05:51:55;;;;;;;15.50;13.90;;;;;;;25.02;57.89;98341.41;8451772;28;20448;-74
2022/07/21 05:55:57;;;;;;;13.90;12.47;;;;;;;25.08;58.50;98345.28;8451454;28;20236;-74
2022/07/21 06:00:02;;;;;;;13.40;11.97;;;;;;;25.15;57.75;98360.41;8451327;28;20260;-73
2022/07/21 06:04:05;;;;;;;17.60;13.27;;;;;;;25.20;57.92;98362.59;8451346;28;20240;-74
2022/07/21 06:08:07;;;;;;;16.30;13.87;;;;;;;25.23;58.08;98362.34;8451341;28;20305;-73
2022/07/21 06:12:10;;;;;;;16.07;13.23;;;;;;;25.20;58.21;98369.72;8451188;28;20235;-73
2022/07/21 06:16:14;;;;;;;16.23;13.20;;;;;;;25.30;57.18;98368.72;8451200;28;20233;-73
2022/07/21 06:20:17;;;;;;;18.40;13.03;;;;;;;25.33;57.09;98367.56;8450813;28;20429;-73
2022/07/21 06:24:22;;;;;;;13.87;12.37;;;;;;;25.32;57.53;98363.22;8450501;28;20239;-72
2022/07/21 06:28:24;;;;;;;14.73;12.77;;;;;;;25.38;56.96;98360.00;8450464;28;20233;-72
2022/07/21 06:32:29;;;;;;;17.03;12.57;;;;;;;25.33;57.81;98372.88;8450316;28;20523;-72
2022/07/21 06:36:32;;;;;;;15.93;12.43;;;;;;;25.27;57.24;98369.00;8450610;28;20228;-73
2022/07/21 06:40:35;;;;;;;14.97;13.27;;;;;;;25.31;56.75;98369.53;8450265;28;20235;-73
2022/07/21 06:44:38;;;;;;;14.77;13.17;;;;;;;25.39;56.91;98374.91;8450454;28;20404;-73
2022/07/21 06:48:42;;;;;;;13.93;11.93;;;;;;;25.35;56.44;98366.41;8449675;28;20523;-72
2022/07/21 06:52:45;;;;;;;17.37;13.37;;;;;;;25.28;57.13;98383.91;8449992;28;20229;-73
2022/07/21 06:56:48;;;;;;;14.27;12.83;;;;;;;25.40;57.20;98381.88;8466144;28;20241;-71
2022/07/21 07:00:51;;;;;;;13.70;12.30;;;;;;;25.44;56.39;98380.59;8449732;28;20229;-72
2022/07/21 07:04:56;;;;;;;14.77;12.27;;;;;;;25.44;56.58;98388.53;8449526;28;20241;-73
2022/07/21 07:09:07;;;;;;;13.80;12.40;;;;;;;25.48;56.57;98389.88;8449446;28;20259;-73
2022/07/21 07:13:10;;;;;;;14.87;13.43;;;;;;;25.46;56.20;98393.69;8449065;28;20227;-73
2022/07/21 07:17:33;;;;;;;15.57;12.70;;;;;;;25.45;56.81;98398.13;8448818;28;20224;-73
2022/07/21 07:21:37;;;;;;;15.57;12.83;;;;;;;25.65;55.65;98388.22;8448756;28;20232;-73
2022/07/21 07:25:40;;;;;;;14.83;12.67;;;;;;;25.74;54.76;98395.25;8448691;28;20229;-72
2022/07/21 07:29:43;;;;;;;13.27;11.87;;;;;;;25.96;54.80;98402.91;8448629;28;20299;-72
2022/07/21 07:33:46;;;;;;;18.97;13.40;;;;;;;25.86;55.39;98401.13;8448422;28;20539;-72
2022/07/21 07:37:50;;;;;;;14.53;12.67;;;;;;;25.83;55.12;98395.31;8464645;28;20523;-73
2022/07/21 07:41:55;;;;;;;16.47;12.90;;;;;;;26.08;54.49;98394.53;8448094;28;20702;-74
2022/07/21 07:45:57;;;;;;;13.63;12.27;;;;;;;26.27;53.65;98400.59;8448059;28;20233;-73
2022/07/21 07:50:00;;;;;;;14.13;12.73;;;;;;;26.81;51.65;98389.75;8448256;28;20297;-74
2022/07/21 07:54:05;;;;;;;14.10;12.13;;;;;;;26.63;52.84;98389.84;8448105;28;20415;-74
2022/07/21 07:58:08;;;;;;;13.37;11.90;;;;;;;26.46;51.96;98384.41;8447626;28;20225;-74
2022/07/21 08:02:10;;;;;;;13.10;11.80;;;;;;;26.75;51.12;98382.41;8447468;28;20260;-73
2022/07/21 08:06:13;;;;;;;14.43;12.20;;;;;;;26.71;51.18;98393.38;8447951;28;20419;-72
2022/07/21 08:10:18;;;;;;;14.03;11.50;;;;;;;26.62;51.87;98393.50;8447708;28;20230;-73
2022/07/21 08:14:40;;;;;;;15.63;10.90;;;;;;;26.76;51.46;98387.56;8447491;28;20233;-73
2022/07/21 08:18:44;;;;;;;13.30;9.23;;;;;;;26.68;51.05;98399.00;8447478;28;20242;-72
2022/07/21 08:22:50;;;;;;;10.97;9.23;;;;;;;26.80;49.77;98396.06;8447046;28;20236;-71
2022/07/21 08:26:55;;;;;;;9.77;8.43;;;;;;;26.82;48.95;98396.72;8447241;28;20231;-72
2022/07/21 08:30:58;;;;;;;9.80;8.70;;;;;;;26.73;48.81;98395.84;8447134;28;20521;-73
2022/07/21 08:35:01;;;;;;;9.87;8.80;;;;;;;26.81;48.88;98395.06;8447207;28;20236;-73
2022/07/21 08:39:03;;;;;;;9.17;8.27;;;;;;;26.91;48.85;98409.03;8447103;28;20237;-73
2022/07/21 08:43:09;;;;;;;10.97;8.60;;;;;;;27.16;48.21;98401.13;8446902;28;20240;-73
2022/07/21 08:47:12;;;;;;;9.80;8.17;;;;;;;28.12;45.71;98399.69;8447067;28;20232;-73
2022/07/21 08:51:15;;;;;;;11.20;8.17;;;;;;;28.69;43.56;98396.88;8446880;28;20236;-73
2022/07/21 08:55:18;;;;;;;8.27;7.37;;;;;;;28.91;43.34;98411.25;8446070;28;20237;-74
2022/07/21 08:59:23;;;;;;;9.90;8.07;;;;;;;28.39;43.90;98417.13;8437489;28;20223;-75
2022/07/21 09:03:33;;;;;;;8.20;7.40;;;;;;;28.25;44.33;98421.28;8441258;28;20437;-75
2022/07/21 09:07:51;;;;;;;10.83;7.50;;;;;;;28.20;43.44;98410.34;8446897;28;20229;-75
2022/07/21 09:11:54;;;;;;;8.80;7.20;;;;;;;28.56;42.52;98407.25;8450247;28;20425;-74
2022/07/21 09:15:59;;;;;;;8.17;7.00;;;;;;;29.53;40.77;98410.41;8453104;28;20532;-74
2022/07/21 09:20:02;;;;;;;6.30;5.33;;;;;;;29.14;39.65;98413.19;8453077;28;20233;-74
2022/07/21 09:24:15;;;;;;;5.90;5.30;;;;;;;29.12;38.44;98409.81;8453046;28;20261;-74
2022/07/21 09:28:19;;;;;;;6.80;5.60;;;;;;;29.07;39.89;98413.00;8452795;28;20225;-72
2022/07/21 09:32:25;;;;;;;8.73;6.03;;;;;;;29.49;39.13;98405.59;8452599;28;20233;-74
2022/07/21 09:36:28;;;;;;;8.90;6.30;;;;;;;30.00;38.15;98406.69;8452571;28;20500;-73
2022/07/21 09:40:31;;;;;;;7.93;6.07;;;;;;;30.18;38.71;98395.66;8452484;28;20255;-74
2022/07/21 09:44:34;;;;;;;7.13;5.90;;;;;;;30.12;38.39;98406.22;8452313;28;20233;-74
2022/07/21 09:48:39;;;;;;;7.50;5.83;;;;;;;29.49;38.64;98405.59;8452014;28;20236;-75
2022/07/21 09:52:43;;;;;;;6.97;5.50;;;;;;;30.65;36.18;98398.16;8451662;28;20226;-74
2022/07/21 09:56:47;;;;;;;5.90;5.13;;;;;;;29.79;36.23;98399.38;8451919;28;20340;-74
2022/07/21 10:00:50;;;;;;;6.03;5.43;;;;;;;29.01;38.76;98395.88;8451303;28;20238;-73
2022/07/21 10:04:58;;;;;;;7.07;5.57;;;;;;;29.51;37.31;98390.25;8451461;28;20240;-73
2022/07/21 10:09:11;;;;;;;6.63;4.63;;;;;;;29.32;36.88;98378.22;8451644;28;20497;-74
2022/07/21 10:13:15;;;;;;;4.93;4.53;;;;;;;30.10;34.87;98386.91;8451214;28;20235;-73
2022/07/21 10:17:20;;;;;;;7.27;4.70;;;;;;;29.75;35.24;98379.38;8451156;28;20401;-73
2022/07/21 10:21:31;;;;;;;6.03;4.47;;;;;;;29.52;36.53;98376.72;8450240;28;20234;-74
2022/07/21 10:25:34;;;;;;;5.37;4.73;;;;;;;29.13;36.97;98379.50;8451026;28;20233;-74
2022/07/21 10:29:53;;;;;;;7.17;4.70;;;;;;;30.30;35.39;98372.00;8450753;28;20232;-74
2022/07/21 10:34:02;;;;;;;5.30;4.80;;;;;;;30.00;36.09;98384.50;8450541;28;20245;-73
2022/07/21 10:38:07;;;;;;;7.43;4.30;;;;;;;29.27;35.74;98380.59;8450254;28;20280;-74
2022/07/21 10:42:16;;;;;;;6.30;4.00;;;;;;;29.39;35.27;98384.50;8450817;28;20538;-74
2022/07/21 10:46:36;;;;;;;5.90;4.20;;;;;;;29.31;35.73;98371.22;8450407;28;20223;-74
2022/07/21 10:50:40;;;;;;;5.10;4.30;;;;;;;29.05;36.73;98373.22;8450033;28;20450;-73
2022/07/21 10:55:16;;;;;;;9.70;4.60;;;;;;;29.05;35.99;98385.69;8450113;28;20237;-73
2022/07/21 10:59:19;;;;;;;6.03;3.97;;;;;;;30.00;34.51;98392.50;8449497;28;20374;-72
2022/07/21 11:03:26;;;;;;;5.27;4.07;;;;;;;30.68;32.36;98384.44;8448683;28;20233;-72
2022/07/21 11:08:02;;;;;;;7.03;4.20;;;;;;;31.07;32.11;98375.25;8446711;28;20427;-75
2022/07/21 11:12:08;;;;;;;4.03;3.57;;;;;;;29.86;33.32;98371.97;8446066;28;20224;-75
2022/07/21 11:16:11;;;;;;;3.73;3.40;;;;;;;29.45;33.25;98373.09;8448587;28;20251;-73
2022/07/21 11:20:14;;;;;;;3.67;3.30;;;;;;;29.30;34.09;98369.56;8445670;28;20234;-73
2022/07/21 11:24:19;;;;;;;4.93;3.60;;;;;;;29.28;34.02;98369.72;8448542;28;20295;-74
2022/07/21 11:28:23;;;;;;;6.97;3.53;;;;;;;28.94;34.46;98354.94;8447812;28;20221;-73
2022/07/21 11:32:27;;;;;;;4.13;3.60;;;;;;;29.18;34.42;98361.16;8447979;28;20225;-73
2022/07/21 11:36:32;;;;;;;4.50;3.53;;;;;;;30.70;32.55;98353.81;8448047;28;20225;-73
2022/07/21 11:40:34;;;;;;;4.53;3.80;;;;;;;31.13;30.84;98342.38;8448194;28;20223;-74
2022/07/21 11:44:38;;;;;;;8.63;3.80;;;;;;;31.68;31.15;98342.69;8448310;28;20232;-73
2022/07/21 11:48:41;;;;;;;4.33;3.40;;;;;;;32.01;28.60;98342.94;8445234;28;20223;-73
2022/07/21 11:52:44;;;;;;;6.43;4.10;;;;;;;30.62;31.21;98326.41;8447687;28;20402;-74
2022/07/21 11:56:48;;;;;;;5.13;3.30;;;;;;;30.58;32.72;98326.75;8449880;28;20214;-72
2022/07/21 12:01:06;;;;;;;4.50;3.50;;;;;;;30.90;31.48;98315.81;8454495;28;20236;-72
2022/07/21 12:05:10;;;;;;;7.67;3.60;;;;;;;31.67;30.73;98309.75;8447448;28;20231;-73
2022/07/21 12:09:13;;;;;;;6.40;3.60;;;;;;;32.32;29.68;98298.81;8447791;28;20228;-73
2022/07/21 12:13:15;;;;;;;4.90;3.43;;;;;;;32.49;29.70;98308.16;8447550;28;20508;-73
2022/07/21 12:17:33;;;;;;;4.97;3.47;;;;;;;32.47;29.49;98306.72;8447608;28;20231;-73
2022/07/21 12:21:44;;;;;;;4.17;3.30;;;;;;;32.05;28.77;98305.91;8447430;28;20238;-73
2022/07/21 12:25:48;;;;;;;4.40;3.10;;;;;;;32.59;28.36;98301.63;8463696;28;20283;-74
2022/07/21 12:29:58;;;;;;;4.03;3.20;;;;;;;32.77;27.82;98301.88;8447339;28;20271;-73
2022/07/21 12:34:12;;;;;;;6.70;3.37;;;;;;;33.07;27.50;98298.81;8447180;28;20429;-74
2022/07/21 12:38:37;;;;;;;7.57;3.50;;;;;;;33.09;27.16;98300.28;8447331;28;20227;-74
2022/07/21 12:42:40;;;;;;;5.47;3.33;;;;;;;33.19;27.03;98291.88;8447289;28;20281;-73
2022/07/21 12:46:44;;;;;;;6.13;3.30;;;;;;;32.78;27.71;98289.31;8450730;28;20234;-74
2022/07/21 12:51:13;;;;;;;8.60;3.50;;;;;;;33.03;26.25;98292.22;8453703;28;20224;-73
2022/07/21 12:55:16;;;;;;;4.53;3.23;;;;;;;32.72;28.20;98294.44;8453666;28;20227;-74
2022/07/21 12:59:20;;;;;;;3.80;3.37;;;;;;;32.60;26.89;98303.28;8453770;28;20228;-74
2022/07/21 13:03:22;;;;;;;3.70;3.07;;;;;;;33.08;27.19;98293.25;8453584;28;20627;-74
2022/07/21 13:07:42;;;;;;;4.57;3.37;;;;;;;33.12;25.67;98293.72;8453378;28;20257;-74
2022/07/21 13:11:44;;;;;;;5.73;3.13;;;;;;;33.25;25.25;98288.34;8453538;28;20265;-75
2022/07/21 13:15:47;;;;;;;5.63;3.30;;;;;;;32.26;26.65;98280.84;8452944;28;20224;-73
2022/07/21 13:19:50;;;;;;;4.60;3.23;;;;;;;32.90;26.25;98283.16;8452994;28;20241;-74
2022/07/21 13:23:57;;;;;;;5.50;3.43;;;;;;;32.60;25.12;98279.97;8451983;28;20222;-74
2022/07/21 13:28:00;;;;;;;5.00;3.50;;;;;;;33.22;24.95;98271.84;8451952;28;20243;-74
2022/07/21 13:32:03;;;;;;;4.93;3.10;;;;;;;32.87;25.01;98275.50;8452407;28;20234;-75
2022/07/21 13:36:08;;;;;;;3.77;3.10;;;;;;;32.50;25.25;98274.13;8452561;28;20546;-75
2022/07/21 13:40:12;;;;;;;4.90;3.27;;;;;;;32.43;26.25;98270.63;8452483;28;20521;-75
2022/07/21 13:44:35;;;;;;;3.50;3.20;;;;;;;32.93;25.72;98263.94;8450613;28;20427;-74
2022/07/21 13:48:38;;;;;;;5.47;3.13;;;;;;;32.69;25.85;98264.50;8452050;28;20229;-76
2022/07/21 13:52:46;;;;;;;7.67;3.20;;;;;;;32.10;26.06;98265.94;8452222;28;20231;-73
2022/07/21 13:56:51;;;;;;;4.70;3.30;;;;;;;32.89;26.46;98251.97;8451725;28;20419;-73
2022/07/21 14:00:55;;;;;;;5.60;3.30;;;;;;;32.45;26.41;98263.22;8451823;28;20254;-73
2022/07/21 14:04:58;;;;;;;3.83;3.20;;;;;;;32.71;24.91;98255.25;8451587;28;20517;-73
2022/07/21 14:09:01;;;;;;;5.47;3.30;;;;;;;32.39;25.08;98253.28;8451572;28;20225;-73
2022/07/21 14:13:05;;;;;;;6.83;3.53;;;;;;;32.80;25.07;98249.69;8451236;28;20244;-73
2022/07/21 14:17:08;;;;;;;5.97;3.60;;;;;;;32.39;26.20;98242.59;8451091;28;20229;-73
2022/07/21 14:21:11;;;;;;;9.83;3.33;;;;;;;32.81;25.06;98238.78;8451145;28;20233;-73
2022/07/21 14:25:20;;;;;;;4.50;3.17;;;;;;;32.57;25.27;98245.53;8451182;28;20252;-73
2022/07/21 14:29:25;;;;;;;5.63;3.30;;;;;;;32.65;25.64;98244.50;8450884;28;20231;-72
2022/07/21 14:33:29;;;;;;;7.47;4.00;;;;;;;32.65;25.10;98241.84;8450414;28;20242;-71
2022/07/21 14:37:33;;;;;;;6.93;3.50;;;;;;;32.69;25.09;98245.75;8450485;28;20426;-73
2022/07/21 14:41:36;;;;;;;5.27;3.33;;;;;;;32.18;25.94;98252.38;8450465;28;20548;-73
2022/07/21 14:45:41;;;;;;;6.03;4.03;;;;;;;32.07;24.42;98247.59;8450198;28;20237;-73
2022/07/21 14:49:44;;;;;;;5.17;3.60;;;;;;;32.45;24.41;98234.53;8450137;28;20233;-73
2022/07/21 14:53:47;;;;;;;4.07;3.40;;;;;;;32.45;24.97;98237.22;8450168;28;20415;-73
2022/07/21 14:57:50;;;;;;;6.47;3.57;;;;;;;32.31;25.14;98238.19;8449955;28;20541;-73
2022/07/21 15:01:55;;;;;;;6.57;3.60;;;;;;;31.99;25.29;98228.97;8449478;28;20350;-73
2022/07/21 15:05:57;;;;;;;7.13;3.57;;;;;;;32.22;25.27;98226.84;8382821;28;20304;-74
2022/07/21 15:10:00;;;;;;;6.47;3.57;;;;;;;32.33;25.09;98214.72;8382515;28;20537;-73
2022/07/21 15:14:03;;;;;;;7.43;3.90;;;;;;;31.54;25.31;98230.19;8382906;28;20318;-74
2022/07/21 15:18:17;;;;;;;5.33;3.70;;;;;;;31.67;25.00;98221.41;8382917;28;20226;-73
2022/07/21 15:22:20;;;;;;;6.27;3.87;;;;;;;31.69;25.21;98229.25;8382744;28;20330;-73
2022/07/21 15:26:23;;;;;;;4.93;3.90;;;;;;;31.12;26.48;98220.38;8382663;28;20485;-73
2022/07/21 15:30:25;;;;;;;7.00;3.67;;;;;;;31.13;26.81;98220.19;8382446;28;20234;-72
2022/07/21 15:34:30;;;;;;;4.90;3.60;;;;;;;31.50;26.36;98220.06;8382140;28;20242;-73
2022/07/21 15:38:33;;;;;;;4.93;3.83;;;;;;;31.58;26.15;98219.09;8382187;28;20424;-73
2022/07/21 15:42:38;;;;;;;4.83;3.73;;;;;;;30.90;26.47;98215.06;8382023;28;20236;-73
2022/07/21 15:46:42;;;;;;;5.97;3.90;;;;;;;31.06;26.71;98219.31;8381546;28;20232;-73
2022/07/21 15:50:47;;;;;;;5.00;4.13;;;;;;;30.89;26.16;98207.22;8381771;28;20581;-74
2022/07/21 15:54:50;;;;;;;8.13;3.73;;;;;;;30.98;26.12;98211.44;8389189;28;20233;-73
2022/07/21 16:03:35;;;;;;;4.50;3.40;;;;;;;31.27;25.92;98206.94;8355786;28;20233;-74
2022/07/21 16:07:39;;;;;;;5.07;3.57;;;;;;;31.30;26.62;98202.00;8448015;28;20232;-74
2022/07/21 16:11:43;;;;;;;4.40;3.43;;;;;;;31.03;26.29;98202.81;8447771;28;20428;-74
2022/07/21 16:15:47;;;;;;;4.60;3.60;;;;;;;30.94;26.17;98202.97;8447674;28;20232;-73
2022/07/21 16:19:49;;;;;;;7.43;3.90;;;;;;;30.85;25.12;98197.91;8445970;28;20412;-72
2022/07/21 16:23:54;;;;;;;4.10;3.30;;;;;;;30.85;25.44;98195.25;8447731;28;20493;-73
2022/07/21 16:27:58;;;;;;;5.30;3.63;;;;;;;30.75;25.90;98190.22;8447287;28;20274;-73
2022/07/21 16:32:01;;;;;;;5.80;3.60;;;;;;;30.74;25.72;98189.38;8447254;28;20252;-73
2022/07/21 16:36:05;;;;;;;5.23;3.67;;;;;;;30.66;26.02;98181.50;8446983;28;20230;-73
2022/07/21 16:40:10;;;;;;;5.33;3.73;;;;;;;30.76;26.69;98189.19;8447164;28;20241;-72
2022/07/21 16:44:15;;;;;;;5.83;4.00;;;;;;;30.60;26.65;98183.09;8447240;28;20228;-74
2022/07/21 16:48:18;;;;;;;4.60;3.60;;;;;;;30.61;26.68;98191.94;8447101;28;20294;-72
2022/07/21 16:52:21;;;;;;;7.83;3.90;;;;;;;30.39;26.27;98191.13;8446853;28;20235;-72
2022/07/21 16:56:25;;;;;;;4.20;3.60;;;;;;;30.39;26.47;98191.94;8447025;28;20524;-72
2022/07/21 17:00:28;;;;;;;7.63;3.80;;;;;;;30.43;26.63;98183.56;8447146;28;20404;-72
2022/07/21 17:04:31;;;;;;;4.77;3.83;;;;;;;30.32;26.70;98187.53;8446585;28;20236;-72
2022/07/21 17:08:34;;;;;;;4.23;3.60;;;;;;;30.31;27.09;98186.69;8446650;28;20230;-72
2022/07/21 17:12:39;;;;;;;5.73;3.70;;;;;;;30.05;27.42;98175.69;8446641;28;20340;-72
2022/07/21 17:16:42;;;;;;;5.40;3.50;;;;;;;29.84;26.75;98187.97;8446444;28;20233;-72
2022/07/21 17:20:45;;;;;;;7.43;3.57;;;;;;;29.88;26.94;98185.75;8446581;28;20229;-73
2022/07/21 17:24:48;;;;;;;5.37;3.50;;;;;;;29.78;27.46;98192.22;8446022;28;20246;-72
2022/07/21 17:28:52;;;;;;;4.87;4.00;;;;;;;29.68;27.79;98190.81;8446536;28;20417;-72
2022/07/21 17:32:55;;;;;;;6.70;3.90;;;;;;;29.49;27.72;98192.19;8450074;28;20245;-72
2022/07/21 17:37:01;;;;;;;4.63;3.80;;;;;;;29.46;27.67;98188.03;8452263;28;20234;-72
2022/07/21 17:41:04;;;;;;;7.33;3.70;;;;;;;29.54;28.04;98184.47;8452311;28;20246;-72
2022/07/21 17:45:09;;;;;;;7.43;3.83;;;;;;;29.46;28.47;98179.22;8418625;28;20309;-74
2022/07/21 17:49:12;;;;;;;4.30;3.40;;;;;;;29.49;28.94;98187.66;8418531;28;20229;-74
2022/07/21 17:53:15;;;;;;;6.37;4.03;;;;;;;29.50;29.06;98184.00;8418634;28;20398;-73
2022/07/21 18:01:40;;;;;;;5.90;4.03;;;;;;;29.31;28.80;98189.88;8430343;28;20313;-73
2022/07/21 18:05:44;;;;;;;5.97;4.07;;;;;;;29.25;29.58;98199.44;8451644;28;20238;-73
2022/07/21 18:09:47;;;;;;;5.77;3.60;;;;;;;29.21;29.30;98190.97;8451338;28;20296;-71
2022/07/21 18:13:50;;;;;;;5.47;3.97;;;;;;;29.13;29.94;98191.06;8451380;28;20286;-71
2022/07/21 18:17:55;;;;;;;5.83;4.07;;;;;;;28.99;30.06;98197.13;8451747;28;20226;-76
2022/07/21 18:21:58;;;;;;;6.20;4.00;;;;;;;28.82;30.46;98196.44;8451294;28;20231;-71
2022/07/21 18:26:01;;;;;;;6.43;4.33;;;;;;;28.77;31.12;98199.66;8451221;28;20230;-72
2022/07/21 18:30:06;;;;;;;11.30;4.20;;;;;;;28.74;31.26;98204.50;8450625;28;20275;-72
2022/07/21 18:34:16;;;;;;;8.17;3.90;;;;;;;28.69;31.43;98197.03;8450816;28;20252;-72
2022/07/21 18:38:19;;;;;;;6.90;4.57;;;;;;;28.63;31.55;98201.22;8450643;28;20251;-72
2022/07/21 18:42:22;;;;;;;9.80;4.10;;;;;;;28.55;31.57;98198.63;8447890;28;20248;-72
2022/07/21 18:46:25;;;;;;;6.63;4.30;;;;;;;28.55;31.76;98203.97;8450237;28;20232;-72
2022/07/21 18:50:30;;;;;;;6.87;4.07;;;;;;;28.52;31.66;98206.16;8450400;28;20285;-72
2022/07/21 18:54:32;;;;;;;6.40;3.90;;;;;;;28.43;32.17;98203.53;8449770;28;20242;-72
2022/07/21 18:58:35;;;;;;;5.03;3.87;;;;;;;28.37;32.59;98209.56;8450080;28;20435;-72
2022/07/21 19:02:38;;;;;;;5.93;4.30;;;;;;;28.30;32.56;98211.25;8449789;28;20237;-73
2022/07/21 19:06:43;;;;;;;8.73;4.57;;;;;;;28.25;32.48;98209.13;8450028;28;20229;-72
2022/07/21 19:10:46;;;;;;;7.73;4.27;;;;;;;28.19;32.63;98206.31;8449469;28;20285;-72
2022/07/21 19:14:49;;;;;;;11.70;4.30;;;;;;;28.14;33.06;98216.66;8449105;28;20441;-71
2022/07/21 19:18:52;;;;;;;5.67;4.03;;;;;;;28.08;32.96;98219.03;8449439;28;20572;-71